sensor_id;sensor_type;location;lat;lon;timestamp;P1;durP1;ratioP1;P2;durP2;ratioP2
3587;SDS011;1808;53.596;9.972;2022-08-19T00:02:23;31.48;;;21.10;;
3587;SDS011;1808;53.596;9.972;2022-08-19T00:04:50;30.00;;;20.05;;
3587;SDS011;1808;53.596;9.972;2022-08-19T00:07:17;34.08;;;20.40;;
3587;SDS011;1808;53.596;9.972;2022-08-19T00:09:44;32.25;;;20.40;;
3587;SDS011;1808;53.596;9.972;2022-08-19T00:12:10;32.67;;;19.70;;
3587;SDS011;1808;53.596;9.972;2022-08-19T00:14:38;37.10;;;22.83;;
3587;SDS011;1808;53.596;9.972;2022-08-19T00:17:06;39.30;;;24.23;;
3587;SDS011;1808;53.596;9.972;2022-08-19T00:19:35;36.83;;;23.33;;
3587;SDS011;1808;53.596;9.972;2022-08-19T00:22:05;40.38;;;24.00;;
3587;SDS011;1808;53.596;9.972;2022-08-19T00:24:33;44.95;;;25.30;;
3587;SDS011;1808;53.596;9.972;2022-08-19T00:27:01;38.13;;;23.98;;
3587;SDS011;1808;53.596;9.972;2022-08-19T00:29:28;43.67;;;24.10;;
3587;SDS011;1808;53.596;9.972;2022-08-19T00:31:57;43.05;;;22.02;;
3587;SDS011;1808;53.596;9.972;2022-08-19T00:34:28;39.10;;;24.95;;
3587;SDS011;1808;53.596;9.972;2022-08-19T00:36:55;40.85;;;25.25;;
3587;SDS011;1808;53.596;9.972;2022-08-19T00:39:22;44.58;;;26.88;;
3587;SDS011;1808;53.596;9.972;2022-08-19T00:41:49;45.03;;;25.02;;
3587;SDS011;1808;53.596;9.972;2022-08-19T00:44:18;44.70;;;27.75;;
3587;SDS011;1808;53.596;9.972;2022-08-19T00:46:46;44.25;;;27.52;;
3587;SDS011;1808;53.596;9.972;2022-08-19T00:49:16;34.15;;;19.05;;
3587;SDS011;1808;53.596;9.972;2022-08-19T00:51:46;44.40;;;24.63;;
3587;SDS011;1808;53.596;9.972;2022-08-19T00:54:14;50.35;;;26.05;;
3587;SDS011;1808;53.596;9.972;2022-08-19T00:56:41;44.58;;;24.35;;
3587;SDS011;1808;53.596;9.972;2022-08-19T00:59:07;48.38;;;25.17;;
3587;SDS011;1808;53.596;9.972;2022-08-19T01:01:35;46.83;;;26.95;;
3587;SDS011;1808;53.596;9.972;2022-08-19T01:04:01;49.17;;;26.75;;
3587;SDS011;1808;53.596;9.972;2022-08-19T01:06:29;42.10;;;23.63;;
3587;SDS011;1808;53.596;9.972;2022-08-19T01:08:57;52.25;;;24.98;;
3587;SDS011;1808;53.596;9.972;2022-08-19T01:11:24;45.67;;;26.17;;
3587;SDS011;1808;53.596;9.972;2022-08-19T01:13:51;45.25;;;24.00;;
3587;SDS011;1808;53.596;9.972;2022-08-19T01:16:19;38.83;;;22.23;;
3587;SDS011;1808;53.596;9.972;2022-08-19T01:18:47;40.45;;;22.83;;
3587;SDS011;1808;53.596;9.972;2022-08-19T01:21:15;41.97;;;24.73;;
3587;SDS011;1808;53.596;9.972;2022-08-19T01:23:49;39.30;;;25.85;;
3587;SDS011;1808;53.596;9.972;2022-08-19T01:26:16;41.08;;;26.70;;
3587;SDS011;1808;53.596;9.972;2022-08-19T01:28:45;40.15;;;22.73;;
3587;SDS011;1808;53.596;9.972;2022-08-19T01:31:13;45.83;;;25.08;;
3587;SDS011;1808;53.596;9.972;2022-08-19T01:33:41;35.20;;;23.08;;
3587;SDS011;1808;53.596;9.972;2022-08-19T01:36:09;40.13;;;23.83;;
3587;SDS011;1808;53.596;9.972;2022-08-19T01:38:38;38.53;;;23.23;;
3587;SDS011;1808;53.596;9.972;2022-08-19T01:41:07;39.58;;;22.88;;
3587;SDS011;1808;53.596;9.972;2022-08-19T01:43:34;42.03;;;25.42;;
3587;SDS011;1808;53.596;9.972;2022-08-19T01:46:01;41.53;;;21.70;;
3587;SDS011;1808;53.596;9.972;2022-08-19T01:48:32;42.08;;;23.90;;
3587;SDS011;1808;53.596;9.972;2022-08-19T01:50:59;39.95;;;25.20;;
3587;SDS011;1808;53.596;9.972;2022-08-19T01:53:26;43.40;;;22.38;;
3587;SDS011;1808;53.596;9.972;2022-08-19T01:55:52;50.35;;;25.30;;
3587;SDS011;1808;53.596;9.972;2022-08-19T01:58:21;41.53;;;23.73;;
3587;SDS011;1808;53.596;9.972;2022-08-19T02:00:49;44.40;;;22.05;;
3587;SDS011;1808;53.596;9.972;2022-08-19T02:03:15;46.72;;;25.55;;
3587;SDS011;1808;53.596;9.972;2022-08-19T02:05:44;46.25;;;24.17;;
3587;SDS011;1808;53.596;9.972;2022-08-19T02:08:11;48.25;;;23.25;;
3587;SDS011;1808;53.596;9.972;2022-08-19T02:10:39;38.67;;;23.13;;
3587;SDS011;1808;53.596;9.972;2022-08-19T02:13:07;41.67;;;23.75;;
3587;SDS011;1808;53.596;9.972;2022-08-19T02:15:35;49.33;;;25.17;;
3587;SDS011;1808;53.596;9.972;2022-08-19T02:18:02;47.78;;;30.30;;
3587;SDS011;1808;53.596;9.972;2022-08-19T02:20:28;44.28;;;22.20;;
3587;SDS011;1808;53.596;9.972;2022-08-19T02:22:55;54.25;;;26.52;;
3587;SDS011;1808;53.596;9.972;2022-08-19T02:25:21;52.50;;;26.23;;
3587;SDS011;1808;53.596;9.972;2022-08-19T02:27:48;49.72;;;24.55;;
3587;SDS011;1808;53.596;9.972;2022-08-19T02:30:16;54.05;;;26.85;;
3587;SDS011;1808;53.596;9.972;2022-08-19T02:32:46;53.28;;;24.35;;
3587;SDS011;1808;53.596;9.972;2022-08-19T02:35:13;53.70;;;25.65;;
3587;SDS011;1808;53.596;9.972;2022-08-19T02:37:40;52.63;;;26.60;;
3587;SDS011;1808;53.596;9.972;2022-08-19T02:40:24;54.85;;;26.40;;
3587;SDS011;1808;53.596;9.972;2022-08-19T02:42:51;63.05;;;31.50;;
3587;SDS011;1808;53.596;9.972;2022-08-19T02:45:17;61.05;;;30.95;;
3587;SDS011;1808;53.596;9.972;2022-08-19T02:47:45;57.53;;;26.55;;
3587;SDS011;1808;53.596;9.972;2022-08-19T02:50:12;54.97;;;25.40;;
3587;SDS011;1808;53.596;9.972;2022-08-19T02:52:39;60.55;;;27.55;;
3587;SDS011;1808;53.596;9.972;2022-08-19T02:55:06;66.82;;;28.80;;
3587;SDS011;1808;53.596;9.972;2022-08-19T02:57:35;58.33;;;26.40;;
3587;SDS011;1808;53.596;9.972;2022-08-19T03:00:03;57.38;;;23.48;;
3587;SDS011;1808;53.596;9.972;2022-08-19T03:02:30;54.33;;;25.27;;
3587;SDS011;1808;53.596;9.972;2022-08-19T03:05:01;64.38;;;28.50;;
3587;SDS011;1808;53.596;9.972;2022-08-19T03:07:28;65.13;;;26.73;;
3587;SDS011;1808;53.596;9.972;2022-08-19T03:09:55;71.95;;;27.67;;
3587;SDS011;1808;53.596;9.972;2022-08-19T03:12:22;68.95;;;32.67;;
3587;SDS011;1808;53.596;9.972;2022-08-19T03:14:48;66.78;;;23.90;;
3587;SDS011;1808;53.596;9.972;2022-08-19T03:17:15;66.07;;;27.50;;
3587;SDS011;1808;53.596;9.972;2022-08-19T03:19:41;66.75;;;27.52;;
3587;SDS011;1808;53.596;9.972;2022-08-19T03:22:09;49.42;;;23.23;;
3587;SDS011;1808;53.596;9.972;2022-08-19T03:24:36;60.95;;;27.13;;
3587;SDS011;1808;53.596;9.972;2022-08-19T03:27:06;55.90;;;24.17;;
3587;SDS011;1808;53.596;9.972;2022-08-19T03:29:32;59.53;;;29.17;;
3587;SDS011;1808;53.596;9.972;2022-08-19T03:31:59;65.38;;;29.35;;
3587;SDS011;1808;53.596;9.972;2022-08-19T03:34:30;60.72;;;26.02;;
3587;SDS011;1808;53.596;9.972;2022-08-19T03:36:57;64.00;;;27.55;;
3587;SDS011;1808;53.596;9.972;2022-08-19T03:39:27;56.55;;;25.35;;
3587;SDS011;1808;53.596;9.972;2022-08-19T03:41:54;61.83;;;27.08;;
3587;SDS011;1808;53.596;9.972;2022-08-19T03:44:22;51.60;;;22.88;;
3587;SDS011;1808;53.596;9.972;2022-08-19T03:46:51;67.18;;;27.35;;
3587;SDS011;1808;53.596;9.972;2022-08-19T03:49:18;57.58;;;26.83;;
3587;SDS011;1808;53.596;9.972;2022-08-19T03:51:47;64.10;;;28.88;;
3587;SDS011;1808;53.596;9.972;2022-08-19T03:54:15;47.38;;;23.33;;
3587;SDS011;1808;53.596;9.972;2022-08-19T03:56:45;54.78;;;25.65;;
3587;SDS011;1808;53.596;9.972;2022-08-19T03:59:18;50.95;;;24.60;;
3587;SDS011;1808;53.596;9.972;2022-08-19T04:01:50;53.92;;;25.10;;
3587;SDS011;1808;53.596;9.972;2022-08-19T04:04:17;61.00;;;25.77;;
3587;SDS011;1808;53.596;9.972;2022-08-19T04:06:43;57.95;;;25.70;;
3587;SDS011;1808;53.596;9.972;2022-08-19T04:09:12;71.10;;;29.33;;
3587;SDS011;1808;53.596;9.972;2022-08-19T04:11:40;67.78;;;29.45;;
3587;SDS011;1808;53.596;9.972;2022-08-19T04:14:10;76.15;;;29.23;;
3587;SDS011;1808;53.596;9.972;2022-08-19T04:16:37;67.30;;;27.70;;
3587;SDS011;1808;53.596;9.972;2022-08-19T04:19:05;58.85;;;27.05;;
3587;SDS011;1808;53.596;9.972;2022-08-19T04:21:32;70.53;;;28.40;;
3587;SDS011;1808;53.596;9.972;2022-08-19T04:23:59;61.38;;;28.33;;
3587;SDS011;1808;53.596;9.972;2022-08-19T04:26:26;75.63;;;28.38;;
3587;SDS011;1808;53.596;9.972;2022-08-19T04:28:55;79.38;;;30.48;;
3587;SDS011;1808;53.596;9.972;2022-08-19T04:31:24;70.22;;;30.17;;
3587;SDS011;1808;53.596;9.972;2022-08-19T04:33:51;72.28;;;28.45;;
3587;SDS011;1808;53.596;9.972;2022-08-19T04:36:20;80.53;;;30.80;;
3587;SDS011;1808;53.596;9.972;2022-08-19T04:38:48;81.55;;;33.20;;
3587;SDS011;1808;53.596;9.972;2022-08-19T04:41:15;80.43;;;30.83;;
3587;SDS011;1808;53.596;9.972;2022-08-19T04:43:59;92.95;;;39.95;;
3587;SDS011;1808;53.596;9.972;2022-08-19T04:46:28;87.75;;;35.92;;
3587;SDS011;1808;53.596;9.972;2022-08-19T04:48:56;76.95;;;33.03;;
3587;SDS011;1808;53.596;9.972;2022-08-19T04:51:25;91.25;;;34.13;;
3587;SDS011;1808;53.596;9.972;2022-08-19T04:53:55;79.65;;;31.92;;
3587;SDS011;1808;53.596;9.972;2022-08-19T04:56:22;97.97;;;35.17;;
3587;SDS011;1808;53.596;9.972;2022-08-19T04:58:51;96.13;;;38.90;;
3587;SDS011;1808;53.596;9.972;2022-08-19T05:01:21;83.88;;;32.25;;
3587;SDS011;1808;53.596;9.972;2022-08-19T05:03:50;83.03;;;31.67;;
3587;SDS011;1808;53.596;9.972;2022-08-19T05:06:18;94.90;;;40.75;;
3587;SDS011;1808;53.596;9.972;2022-08-19T05:08:46;87.03;;;32.13;;
3587;SDS011;1808;53.596;9.972;2022-08-19T05:11:14;79.80;;;31.70;;
3587;SDS011;1808;53.596;9.972;2022-08-19T05:13:42;82.32;;;31.23;;
3587;SDS011;1808;53.596;9.972;2022-08-19T05:16:10;88.85;;;38.97;;
3587;SDS011;1808;53.596;9.972;2022-08-19T05:18:37;81.25;;;32.65;;
3587;SDS011;1808;53.596;9.972;2022-08-19T05:21:24;80.43;;;33.35;;
3587;SDS011;1808;53.596;9.972;2022-08-19T05:24:08;76.30;;;35.78;;
3587;SDS011;1808;53.596;9.972;2022-08-19T05:26:38;71.13;;;32.03;;
3587;SDS011;1808;53.596;9.972;2022-08-19T05:29:05;87.72;;;40.05;;
3587;SDS011;1808;53.596;9.972;2022-08-19T05:31:33;82.20;;;35.65;;
3587;SDS011;1808;53.596;9.972;2022-08-19T05:34:00;98.22;;;39.28;;
3587;SDS011;1808;53.596;9.972;2022-08-19T05:36:33;92.28;;;37.63;;
3587;SDS011;1808;53.596;9.972;2022-08-19T05:39:00;87.13;;;35.33;;
3587;SDS011;1808;53.596;9.972;2022-08-19T05:41:28;99.25;;;34.10;;
3587;SDS011;1808;53.596;9.972;2022-08-19T05:43:55;95.75;;;40.08;;
3587;SDS011;1808;53.596;9.972;2022-08-19T05:46:22;96.47;;;38.67;;
3587;SDS011;1808;53.596;9.972;2022-08-19T05:48:48;104.15;;;39.30;;
3587;SDS011;1808;53.596;9.972;2022-08-19T05:51:15;89.00;;;35.53;;
3587;SDS011;1808;53.596;9.972;2022-08-19T05:53:43;94.25;;;37.28;;
3587;SDS011;1808;53.596;9.972;2022-08-19T05:56:11;86.00;;;35.50;;
3587;SDS011;1808;53.596;9.972;2022-08-19T05:58:39;96.30;;;41.92;;
3587;SDS011;1808;53.596;9.972;2022-08-19T06:01:09;98.15;;;40.63;;
3587;SDS011;1808;53.596;9.972;2022-08-19T06:03:36;97.85;;;41.58;;
3587;SDS011;1808;53.596;9.972;2022-08-19T06:06:04;91.32;;;36.15;;
3587;SDS011;1808;53.596;9.972;2022-08-19T06:08:32;88.43;;;42.75;;
3587;SDS011;1808;53.596;9.972;2022-08-19T06:11:12;81.90;;;35.45;;
3587;SDS011;1808;53.596;9.972;2022-08-19T06:13:44;88.53;;;38.95;;
3587;SDS011;1808;53.596;9.972;2022-08-19T06:16:12;83.50;;;39.90;;
3587;SDS011;1808;53.596;9.972;2022-08-19T06:18:47;85.25;;;36.05;;
3587;SDS011;1808;53.596;9.972;2022-08-19T06:21:16;83.75;;;34.90;;
3587;SDS011;1808;53.596;9.972;2022-08-19T06:23:43;79.45;;;36.55;;
3587;SDS011;1808;53.596;9.972;2022-08-19T06:26:12;82.05;;;41.00;;
3587;SDS011;1808;53.596;9.972;2022-08-19T06:28:39;79.30;;;35.60;;
3587;SDS011;1808;53.596;9.972;2022-08-19T06:31:08;78.53;;;33.15;;
3587;SDS011;1808;53.596;9.972;2022-08-19T06:33:35;78.72;;;43.22;;
3587;SDS011;1808;53.596;9.972;2022-08-19T06:36:02;72.22;;;33.88;;
3587;SDS011;1808;53.596;9.972;2022-08-19T06:38:29;76.85;;;36.50;;
3587;SDS011;1808;53.596;9.972;2022-08-19T06:40:59;90.35;;;42.28;;
3587;SDS011;1808;53.596;9.972;2022-08-19T06:43:28;80.53;;;34.25;;
3587;SDS011;1808;53.596;9.972;2022-08-19T06:45:54;74.28;;;33.22;;
3587;SDS011;1808;53.596;9.972;2022-08-19T06:48:22;79.28;;;34.90;;
3587;SDS011;1808;53.596;9.972;2022-08-19T06:50:48;78.50;;;35.45;;
3587;SDS011;1808;53.596;9.972;2022-08-19T06:53:16;71.50;;;36.30;;
3587;SDS011;1808;53.596;9.972;2022-08-19T06:55:43;70.22;;;36.65;;
3587;SDS011;1808;53.596;9.972;2022-08-19T06:58:09;59.00;;;30.48;;
3587;SDS011;1808;53.596;9.972;2022-08-19T07:00:37;65.13;;;33.17;;
3587;SDS011;1808;53.596;9.972;2022-08-19T07:03:03;54.90;;;27.77;;
3587;SDS011;1808;53.596;9.972;2022-08-19T07:05:30;47.97;;;23.92;;
3587;SDS011;1808;53.596;9.972;2022-08-19T07:07:56;58.15;;;29.00;;
3587;SDS011;1808;53.596;9.972;2022-08-19T07:10:23;45.40;;;22.92;;
3587;SDS011;1808;53.596;9.972;2022-08-19T07:12:50;47.47;;;21.77;;
3587;SDS011;1808;53.596;9.972;2022-08-19T07:15:16;47.38;;;26.58;;
3587;SDS011;1808;53.596;9.972;2022-08-19T07:17:44;46.63;;;23.73;;
3587;SDS011;1808;53.596;9.972;2022-08-19T07:20:12;43.75;;;21.80;;
3587;SDS011;1808;53.596;9.972;2022-08-19T07:22:39;43.53;;;24.80;;
3587;SDS011;1808;53.596;9.972;2022-08-19T07:25:06;41.35;;;20.25;;
3587;SDS011;1808;53.596;9.972;2022-08-19T07:27:33;34.47;;;18.20;;
3587;SDS011;1808;53.596;9.972;2022-08-19T07:30:00;37.78;;;21.27;;
3587;SDS011;1808;53.596;9.972;2022-08-19T07:32:27;37.55;;;19.15;;
3587;SDS011;1808;53.596;9.972;2022-08-19T07:34:55;35.55;;;19.52;;
3587;SDS011;1808;53.596;9.972;2022-08-19T07:37:22;24.15;;;15.40;;
3587;SDS011;1808;53.596;9.972;2022-08-19T07:39:48;32.00;;;17.90;;
3587;SDS011;1808;53.596;9.972;2022-08-19T07:42:15;29.85;;;18.88;;
3587;SDS011;1808;53.596;9.972;2022-08-19T07:44:42;26.85;;;17.48;;
3587;SDS011;1808;53.596;9.972;2022-08-19T07:47:09;27.65;;;17.88;;
3587;SDS011;1808;53.596;9.972;2022-08-19T07:49:35;27.65;;;13.82;;
3587;SDS011;1808;53.596;9.972;2022-08-19T07:52:04;22.25;;;15.30;;
3587;SDS011;1808;53.596;9.972;2022-08-19T07:54:33;24.27;;;15.20;;
3587;SDS011;1808;53.596;9.972;2022-08-19T07:57:01;22.65;;;14.30;;
3587;SDS011;1808;53.596;9.972;2022-08-19T07:59:29;23.60;;;14.80;;
3587;SDS011;1808;53.596;9.972;2022-08-19T08:01:56;21.33;;;13.60;;
3587;SDS011;1808;53.596;9.972;2022-08-19T08:04:24;23.85;;;13.48;;
3587;SDS011;1808;53.596;9.972;2022-08-19T08:07:09;21.75;;;12.75;;
3587;SDS011;1808;53.596;9.972;2022-08-19T08:09:54;17.50;;;11.25;;
3587;SDS011;1808;53.596;9.972;2022-08-19T08:12:22;17.42;;;12.30;;
3587;SDS011;1808;53.596;9.972;2022-08-19T08:14:53;16.05;;;10.50;;
3587;SDS011;1808;53.596;9.972;2022-08-19T08:17:22;19.23;;;13.93;;
3587;SDS011;1808;53.596;9.972;2022-08-19T08:19:51;21.85;;;13.23;;
3587;SDS011;1808;53.596;9.972;2022-08-19T08:22:19;21.70;;;14.98;;
3587;SDS011;1808;53.596;9.972;2022-08-19T08:25:05;18.08;;;13.20;;
3587;SDS011;1808;53.596;9.972;2022-08-19T08:27:35;21.05;;;12.57;;
3587;SDS011;1808;53.596;9.972;2022-08-19T08:30:04;24.63;;;12.40;;
3587;SDS011;1808;53.596;9.972;2022-08-19T08:32:34;19.42;;;12.40;;
3587;SDS011;1808;53.596;9.972;2022-08-19T08:35:00;26.45;;;13.60;;
3587;SDS011;1808;53.596;9.972;2022-08-19T08:37:28;24.10;;;15.75;;
3587;SDS011;1808;53.596;9.972;2022-08-19T08:39:55;33.83;;;18.40;;
3587;SDS011;1808;53.596;9.972;2022-08-19T08:42:22;26.98;;;16.40;;
3587;SDS011;1808;53.596;9.972;2022-08-19T08:45:00;26.20;;;14.32;;
3587;SDS011;1808;53.596;9.972;2022-08-19T08:47:30;27.27;;;15.65;;
3587;SDS011;1808;53.596;9.972;2022-08-19T08:50:00;31.33;;;18.63;;
3587;SDS011;1808;53.596;9.972;2022-08-19T08:52:31;38.55;;;17.23;;
3587;SDS011;1808;53.596;9.972;2022-08-19T08:55:03;28.00;;;13.27;;
3587;SDS011;1808;53.596;9.972;2022-08-19T08:57:35;29.17;;;16.55;;
3587;SDS011;1808;53.596;9.972;2022-08-19T09:00:04;32.60;;;18.40;;
3587;SDS011;1808;53.596;9.972;2022-08-19T09:02:32;32.20;;;18.13;;
3587;SDS011;1808;53.596;9.972;2022-08-19T09:04:59;32.72;;;16.38;;
3587;SDS011;1808;53.596;9.972;2022-08-19T09:07:28;34.60;;;18.30;;
3587;SDS011;1808;53.596;9.972;2022-08-19T09:10:07;32.90;;;18.02;;
3587;SDS011;1808;53.596;9.972;2022-08-19T09:12:38;44.63;;;20.75;;
3587;SDS011;1808;53.596;9.972;2022-08-19T09:15:14;33.30;;;17.90;;
3587;SDS011;1808;53.596;9.972;2022-08-19T09:17:42;47.03;;;19.75;;
3587;SDS011;1808;53.596;9.972;2022-08-19T09:20:14;35.05;;;15.55;;
3587;SDS011;1808;53.596;9.972;2022-08-19T09:22:43;29.00;;;17.23;;
3587;SDS011;1808;53.596;9.972;2022-08-19T09:25:12;33.45;;;19.08;;
3587;SDS011;1808;53.596;9.972;2022-08-19T09:27:40;28.40;;;15.10;;
3587;SDS011;1808;53.596;9.972;2022-08-19T09:30:08;28.38;;;16.67;;
3587;SDS011;1808;53.596;9.972;2022-08-19T09:32:37;31.08;;;18.77;;
3587;SDS011;1808;53.596;9.972;2022-08-19T09:35:07;33.35;;;17.67;;
3587;SDS011;1808;53.596;9.972;2022-08-19T09:37:34;26.63;;;14.35;;
3587;SDS011;1808;53.596;9.972;2022-08-19T09:40:02;28.58;;;16.50;;
3587;SDS011;1808;53.596;9.972;2022-08-19T09:42:29;21.45;;;14.23;;
3587;SDS011;1808;53.596;9.972;2022-08-19T09:44:55;28.85;;;15.88;;
3587;SDS011;1808;53.596;9.972;2022-08-19T09:47:22;27.70;;;15.75;;
3587;SDS011;1808;53.596;9.972;2022-08-19T09:49:48;31.75;;;17.75;;
3587;SDS011;1808;53.596;9.972;2022-08-19T09:52:15;30.98;;;16.63;;
3587;SDS011;1808;53.596;9.972;2022-08-19T09:54:43;33.05;;;21.88;;
3587;SDS011;1808;53.596;9.972;2022-08-19T09:57:11;30.95;;;18.27;;
3587;SDS011;1808;53.596;9.972;2022-08-19T09:59:38;28.02;;;15.07;;
3587;SDS011;1808;53.596;9.972;2022-08-19T10:02:05;29.02;;;16.83;;
3587;SDS011;1808;53.596;9.972;2022-08-19T10:04:31;30.67;;;17.77;;
3587;SDS011;1808;53.596;9.972;2022-08-19T10:07:12;26.90;;;15.32;;
3587;SDS011;1808;53.596;9.972;2022-08-19T10:09:38;39.67;;;18.30;;
3587;SDS011;1808;53.596;9.972;2022-08-19T10:12:06;36.10;;;20.92;;
3587;SDS011;1808;53.596;9.972;2022-08-19T10:14:35;40.63;;;21.90;;
3587;SDS011;1808;53.596;9.972;2022-08-19T10:17:02;32.25;;;18.95;;
3587;SDS011;1808;53.596;9.972;2022-08-19T10:19:29;32.33;;;19.27;;
3587;SDS011;1808;53.596;9.972;2022-08-19T10:22:02;36.08;;;19.40;;
3587;SDS011;1808;53.596;9.972;2022-08-19T10:24:29;42.20;;;22.05;;
3587;SDS011;1808;53.596;9.972;2022-08-19T10:26:55;39.55;;;23.80;;
3587;SDS011;1808;53.596;9.972;2022-08-19T10:29:22;35.25;;;21.30;;
3587;SDS011;1808;53.596;9.972;2022-08-19T10:31:50;39.95;;;22.95;;
3587;SDS011;1808;53.596;9.972;2022-08-19T10:34:18;41.67;;;26.73;;
3587;SDS011;1808;53.596;9.972;2022-08-19T10:36:45;36.55;;;20.48;;
3587;SDS011;1808;53.596;9.972;2022-08-19T10:39:11;38.67;;;20.25;;
3587;SDS011;1808;53.596;9.972;2022-08-19T10:41:38;34.85;;;17.38;;
3587;SDS011;1808;53.596;9.972;2022-08-19T10:44:10;42.00;;;22.10;;
3587;SDS011;1808;53.596;9.972;2022-08-19T10:46:39;42.10;;;22.70;;
3587;SDS011;1808;53.596;9.972;2022-08-19T10:49:08;44.40;;;27.52;;
3587;SDS011;1808;53.596;9.972;2022-08-19T10:51:36;34.92;;;20.00;;
3587;SDS011;1808;53.596;9.972;2022-08-19T10:54:21;39.38;;;21.60;;
3587;SDS011;1808;53.596;9.972;2022-08-19T10:56:48;41.17;;;20.92;;
3587;SDS011;1808;53.596;9.972;2022-08-19T10:59:16;36.13;;;21.38;;
3587;SDS011;1808;53.596;9.972;2022-08-19T11:01:45;37.97;;;21.38;;
3587;SDS011;1808;53.596;9.972;2022-08-19T11:04:13;38.78;;;22.50;;
3587;SDS011;1808;53.596;9.972;2022-08-19T11:06:42;40.75;;;21.45;;
3587;SDS011;1808;53.596;9.972;2022-08-19T11:09:10;36.60;;;23.30;;
3587;SDS011;1808;53.596;9.972;2022-08-19T11:11:37;37.47;;;22.45;;
3587;SDS011;1808;53.596;9.972;2022-08-19T11:14:06;35.47;;;20.85;;
3587;SDS011;1808;53.596;9.972;2022-08-19T11:16:33;36.25;;;22.45;;
3587;SDS011;1808;53.596;9.972;2022-08-19T11:18:59;30.27;;;19.10;;
3587;SDS011;1808;53.596;9.972;2022-08-19T11:21:29;32.10;;;18.58;;
3587;SDS011;1808;53.596;9.972;2022-08-19T11:23:57;31.48;;;17.65;;
3587;SDS011;1808;53.596;9.972;2022-08-19T11:26:25;31.85;;;19.38;;
3587;SDS011;1808;53.596;9.972;2022-08-19T11:28:52;32.03;;;19.50;;
3587;SDS011;1808;53.596;9.972;2022-08-19T11:31:21;30.33;;;19.45;;
3587;SDS011;1808;53.596;9.972;2022-08-19T11:33:51;30.35;;;18.05;;
3587;SDS011;1808;53.596;9.972;2022-08-19T11:36:18;33.33;;;19.00;;
3587;SDS011;1808;53.596;9.972;2022-08-19T11:38:47;27.98;;;16.55;;
3587;SDS011;1808;53.596;9.972;2022-08-19T11:41:14;27.33;;;17.85;;
3587;SDS011;1808;53.596;9.972;2022-08-19T11:43:42;27.83;;;18.90;;
3587;SDS011;1808;53.596;9.972;2022-08-19T11:46:10;26.52;;;16.65;;
3587;SDS011;1808;53.596;9.972;2022-08-19T11:48:38;25.40;;;16.77;;
3587;SDS011;1808;53.596;9.972;2022-08-19T11:51:06;28.70;;;20.30;;
3587;SDS011;1808;53.596;9.972;2022-08-19T11:53:34;25.17;;;17.90;;
3587;SDS011;1808;53.596;9.972;2022-08-19T11:56:02;28.50;;;18.17;;
3587;SDS011;1808;53.596;9.972;2022-08-19T11:58:30;28.15;;;18.98;;
3587;SDS011;1808;53.596;9.972;2022-08-19T12:00:57;27.42;;;18.88;;
3587;SDS011;1808;53.596;9.972;2022-08-19T12:03:24;27.42;;;17.65;;
3587;SDS011;1808;53.596;9.972;2022-08-19T12:05:51;28.52;;;18.02;;
3587;SDS011;1808;53.596;9.972;2022-08-19T12:08:18;26.10;;;19.13;;
3587;SDS011;1808;53.596;9.972;2022-08-19T12:10:45;25.50;;;17.17;;
3587;SDS011;1808;53.596;9.972;2022-08-19T12:13:13;23.83;;;15.35;;
3587;SDS011;1808;53.596;9.972;2022-08-19T12:15:44;24.65;;;17.88;;
3587;SDS011;1808;53.596;9.972;2022-08-19T12:18:12;31.90;;;18.65;;
3587;SDS011;1808;53.596;9.972;2022-08-19T12:20:43;25.20;;;19.08;;
3587;SDS011;1808;53.596;9.972;2022-08-19T12:23:10;25.23;;;15.88;;
3587;SDS011;1808;53.596;9.972;2022-08-19T12:25:37;27.55;;;17.50;;
3587;SDS011;1808;53.596;9.972;2022-08-19T12:28:16;26.98;;;17.75;;
3587;SDS011;1808;53.596;9.972;2022-08-19T12:30:43;26.08;;;17.35;;
3587;SDS011;1808;53.596;9.972;2022-08-19T12:33:09;21.40;;;15.48;;
3587;SDS011;1808;53.596;9.972;2022-08-19T12:35:39;21.95;;;16.77;;
3587;SDS011;1808;53.596;9.972;2022-08-19T12:38:06;25.50;;;17.10;;
3587;SDS011;1808;53.596;9.972;2022-08-19T12:40:32;22.08;;;16.65;;
3587;SDS011;1808;53.596;9.972;2022-08-19T12:42:59;25.58;;;15.88;;
3587;SDS011;1808;53.596;9.972;2022-08-19T12:45:26;21.65;;;16.10;;
3587;SDS011;1808;53.596;9.972;2022-08-19T12:47:53;22.63;;;15.23;;
3587;SDS011;1808;53.596;9.972;2022-08-19T12:50:20;20.50;;;14.70;;
3587;SDS011;1808;53.596;9.972;2022-08-19T12:52:48;18.00;;;13.38;;
3587;SDS011;1808;53.596;9.972;2022-08-19T12:55:15;22.45;;;14.85;;
3587;SDS011;1808;53.596;9.972;2022-08-19T12:57:43;18.02;;;13.73;;
3587;SDS011;1808;53.596;9.972;2022-08-19T13:00:11;20.63;;;15.98;;
3587;SDS011;1808;53.596;9.972;2022-08-19T13:02:41;21.55;;;14.98;;
3587;SDS011;1808;53.596;9.972;2022-08-19T13:05:10;21.15;;;16.40;;
3587;SDS011;1808;53.596;9.972;2022-08-19T13:07:38;22.95;;;17.33;;
3587;SDS011;1808;53.596;9.972;2022-08-19T13:10:06;21.65;;;17.20;;
3587;SDS011;1808;53.596;9.972;2022-08-19T13:12:33;20.90;;;15.43;;
3587;SDS011;1808;53.596;9.972;2022-08-19T13:15:00;23.17;;;15.85;;
3587;SDS011;1808;53.596;9.972;2022-08-19T13:17:30;21.40;;;16.45;;
3587;SDS011;1808;53.596;9.972;2022-08-19T13:19:59;20.77;;;16.70;;
3587;SDS011;1808;53.596;9.972;2022-08-19T13:22:25;24.00;;;17.55;;
3587;SDS011;1808;53.596;9.972;2022-08-19T13:24:52;22.75;;;18.15;;
3587;SDS011;1808;53.596;9.972;2022-08-19T13:27:18;24.10;;;17.67;;
3587;SDS011;1808;53.596;9.972;2022-08-19T13:29:45;25.88;;;18.85;;
3587;SDS011;1808;53.596;9.972;2022-08-19T13:32:29;22.45;;;16.67;;
3587;SDS011;1808;53.596;9.972;2022-08-19T13:35:15;20.38;;;16.55;;
3587;SDS011;1808;53.596;9.972;2022-08-19T13:37:41;24.35;;;16.02;;
3587;SDS011;1808;53.596;9.972;2022-08-19T13:40:09;23.42;;;18.65;;
3587;SDS011;1808;53.596;9.972;2022-08-19T13:42:37;22.42;;;17.58;;
3587;SDS011;1808;53.596;9.972;2022-08-19T13:45:04;22.58;;;16.70;;
3587;SDS011;1808;53.596;9.972;2022-08-19T13:47:32;23.23;;;17.27;;
3587;SDS011;1808;53.596;9.972;2022-08-19T13:49:59;21.70;;;15.80;;
3587;SDS011;1808;53.596;9.972;2022-08-19T13:52:27;23.88;;;15.38;;
3587;SDS011;1808;53.596;9.972;2022-08-19T13:54:53;20.55;;;14.85;;
3587;SDS011;1808;53.596;9.972;2022-08-19T13:57:21;21.10;;;17.48;;
3587;SDS011;1808;53.596;9.972;2022-08-19T13:59:47;19.08;;;15.82;;
3587;SDS011;1808;53.596;9.972;2022-08-19T14:02:13;22.35;;;18.00;;
3587;SDS011;1808;53.596;9.972;2022-08-19T14:04:40;25.27;;;18.90;;
3587;SDS011;1808;53.596;9.972;2022-08-19T14:07:06;22.48;;;18.05;;
3587;SDS011;1808;53.596;9.972;2022-08-19T14:09:35;22.50;;;17.17;;
3587;SDS011;1808;53.596;9.972;2022-08-19T14:12:02;18.67;;;13.57;;
3587;SDS011;1808;53.596;9.972;2022-08-19T14:14:29;28.45;;;20.50;;
3587;SDS011;1808;53.596;9.972;2022-08-19T14:16:56;25.33;;;17.65;;
3587;SDS011;1808;53.596;9.972;2022-08-19T14:19:22;23.50;;;16.90;;
3587;SDS011;1808;53.596;9.972;2022-08-19T14:21:50;23.70;;;18.33;;
3587;SDS011;1808;53.596;9.972;2022-08-19T14:24:16;28.70;;;20.92;;
3587;SDS011;1808;53.596;9.972;2022-08-19T14:26:44;31.13;;;19.65;;
3587;SDS011;1808;53.596;9.972;2022-08-19T14:29:11;25.67;;;20.23;;
3587;SDS011;1808;53.596;9.972;2022-08-19T14:31:37;29.10;;;22.25;;
3587;SDS011;1808;53.596;9.972;2022-08-19T14:34:06;28.38;;;20.45;;
3587;SDS011;1808;53.596;9.972;2022-08-19T14:36:34;28.48;;;19.58;;
3587;SDS011;1808;53.596;9.972;2022-08-19T14:39:00;28.55;;;19.95;;
3587;SDS011;1808;53.596;9.972;2022-08-19T14:41:27;26.33;;;18.98;;
3587;SDS011;1808;53.596;9.972;2022-08-19T14:43:56;28.23;;;20.33;;
3587;SDS011;1808;53.596;9.972;2022-08-19T14:46:25;29.15;;;21.40;;
3587;SDS011;1808;53.596;9.972;2022-08-19T14:48:52;26.27;;;19.23;;
3587;SDS011;1808;53.596;9.972;2022-08-19T14:51:20;30.42;;;20.55;;
3587;SDS011;1808;53.596;9.972;2022-08-19T14:53:47;27.63;;;20.17;;
3587;SDS011;1808;53.596;9.972;2022-08-19T14:56:16;29.40;;;19.67;;